Time;durP1;ratioP1;P1;durP2;ratioP2;P2;SDS_P1;SDS_P2;PMS_P1;PMS_P2;Temp;Humidity;BMP_temperature;BMP_pressure;BME280_temperature;BME280_humidity;BME280_pressure;Samples;Min_cycle;Max_cycle;Signal;HPM_P1;HPM_P2
2023/08/03 00:00:27;;;;;;;18.40;2.20;;;;;;;;;;4969308;28;20410;-61
2023/08/03 00:02:53;;;;;;;8.68;2.20;;;;;;;;;;4969979;28;20413;-62
2023/08/03 00:05:19;;;;;;;11.40;2.35;;;;;;;;;;4968014;28;20042;-62
2023/08/03 00:07:47;;;;;;;9.15;2.40;;;;;;;;;;4969841;28;20046;-61
2023/08/03 00:10:14;;;;;;;10.18;2.35;;;;;;;;;;4971484;28;20039;-62
2023/08/03 00:12:40;;;;;;;13.75;2.10;;;;;;;;;;4965978;28;20042;-62
2023/08/03 00:15:07;;;;;;;9.65;2.55;;;;;;;;;;4969528;28;20502;-62
2023/08/03 00:17:33;;;;;;;11.65;2.63;;;;;;;;;;4966014;28;20034;-60
2023/08/03 00:20:04;;;;;;;14.60;2.40;;;;;;;;;;4967353;28;20420;-61
2023/08/03 00:22:34;;;;;;;11.55;2.50;;;;;;;;;;4966150;28;20054;-61
2023/08/03 00:25:01;;;;;;;10.80;2.13;;;;;;;;;;4967532;28;20055;-61
2023/08/03 00:27:27;;;;;;;6.90;2.30;;;;;;;;;;4966141;28;20027;-61
2023/08/03 00:29:54;;;;;;;14.93;1.90;;;;;;;;;;4967538;28;20426;-61
2023/08/03 00:32:20;;;;;;;9.77;1.98;;;;;;;;;;4966698;28;20054;-61
2023/08/03 00:34:47;;;;;;;15.57;2.65;;;;;;;;;;4967162;28;20031;-61
2023/08/03 00:37:14;;;;;;;13.20;2.58;;;;;;;;;;4968545;28;20045;-61
2023/08/03 00:39:40;;;;;;;10.15;2.28;;;;;;;;;;4964635;28;20494;-61
2023/08/03 00:42:06;;;;;;;16.75;2.42;;;;;;;;;;4968152;28;20047;-61
2023/08/03 00:44:33;;;;;;;17.50;2.28;;;;;;;;;;4962676;28;20053;-61
2023/08/03 00:47:00;;;;;;;11.13;2.58;;;;;;;;;;4968579;28;20398;-61
2023/08/03 00:49:29;;;;;;;11.25;2.35;;;;;;;;;;4950598;28;20049;-61
2023/08/03 00:51:57;;;;;;;6.90;1.63;;;;;;;;;;4968257;28;20047;-61
2023/08/03 00:54:24;;;;;;;10.52;1.80;;;;;;;;;;4963363;28;20030;-61
2023/08/03 00:56:50;;;;;;;6.80;1.70;;;;;;;;;;4966881;28;20046;-61
2023/08/03 00:59:17;;;;;;;8.50;1.85;;;;;;;;;;4969683;28;20402;-61
2023/08/03 01:01:44;;;;;;;12.57;2.45;;;;;;;;;;4966947;28;20047;-61
2023/08/03 01:04:10;;;;;;;9.65;1.70;;;;;;;;;;4966993;28;20051;-61
2023/08/03 01:06:36;;;;;;;7.65;1.80;;;;;;;;;;4965205;28;20046;-61
2023/08/03 01:09:04;;;;;;;8.85;1.75;;;;;;;;;;4968152;28;20501;-61
2023/08/03 01:11:31;;;;;;;8.35;1.58;;;;;;;;;;4965065;28;20042;-61
2023/08/03 01:13:58;;;;;;;12.80;2.33;;;;;;;;;;4963934;28;20061;-61
2023/08/03 01:16:25;;;;;;;11.90;2.13;;;;;;;;;;4965590;28;20499;-61
2023/08/03 01:18:51;;;;;;;7.43;1.58;;;;;;;;;;4966330;28;20042;-61
2023/08/03 01:21:19;;;;;;;13.60;1.58;;;;;;;;;;4967973;28;20038;-61
2023/08/03 01:23:45;;;;;;;11.23;1.90;;;;;;;;;;4927150;28;1087969;-61
2023/08/03 01:26:11;;;;;;;6.05;1.35;;;;;;;;;;4968599;28;20521;-61
2023/08/03 01:28:37;;;;;;;9.45;1.63;;;;;;;;;;4964780;28;20038;-61
2023/08/03 01:31:04;;;;;;;8.73;1.20;;;;;;;;;;4968135;28;20031;-61
2023/08/03 01:33:30;;;;;;;8.55;1.83;;;;;;;;;;4965451;28;20034;-61
2023/08/03 01:35:56;;;;;;;6.43;1.20;;;;;;;;;;4964254;28;20058;-61
2023/08/03 01:38:22;;;;;;;11.35;1.92;;;;;;;;;;4964346;28;20047;-61
2023/08/03 01:40:49;;;;;;;11.48;1.90;;;;;;;;;;4968848;28;20237;-61
2023/08/03 01:43:15;;;;;;;5.88;1.30;;;;;;;;;;4965641;28;20038;-61
2023/08/03 01:45:41;;;;;;;12.55;1.60;;;;;;;;;;4968487;28;20038;-61
2023/08/03 01:48:07;;;;;;;8.23;1.52;;;;;;;;;;4968335;28;20053;-61
2023/08/03 01:50:35;;;;;;;6.72;1.30;;;;;;;;;;4963571;28;20051;-61
2023/08/03 01:53:01;;;;;;;5.53;1.30;;;;;;;;;;4967066;28;20035;-61
2023/08/03 01:55:27;;;;;;;5.35;1.40;;;;;;;;;;4965890;28;20667;-61
2023/08/03 01:57:54;;;;;;;8.57;1.20;;;;;;;;;;4967621;28;20061;-61
2023/08/03 02:00:20;;;;;;;13.60;1.60;;;;;;;;;;4964620;28;20050;-61
2023/08/03 02:02:47;;;;;;;12.68;1.80;;;;;;;;;;4966125;28;20050;-61
2023/08/03 02:05:17;;;;;;;10.63;1.67;;;;;;;;;;4966352;28;20406;-61
2023/08/03 02:07:55;;;;;;;11.05;1.60;;;;;;;;;;4966871;28;20067;-61
2023/08/03 02:10:23;;;;;;;8.15;1.40;;;;;;;;;;4964517;28;20505;-61
2023/08/03 02:12:49;;;;;;;8.20;1.25;;;;;;;;;;4957865;28;20042;-61
2023/08/03 02:15:16;;;;;;;9.60;1.77;;;;;;;;;;4966824;28;20050;-61
2023/08/03 02:17:43;;;;;;;8.63;1.20;;;;;;;;;;4962918;28;20042;-61
2023/08/03 02:20:10;;;;;;;6.10;1.20;;;;;;;;;;4966610;28;20039;-61
2023/08/03 02:22:36;;;;;;;6.28;1.15;;;;;;;;;;4964939;28;20410;-61
2023/08/03 02:25:04;;;;;;;4.43;1.30;;;;;;;;;;4967459;28;20054;-61
2023/08/03 02:27:30;;;;;;;8.27;2.03;;;;;;;;;;4964905;28;20054;-61
2023/08/03 02:29:57;;;;;;;7.88;1.30;;;;;;;;;;4966546;28;20033;-61
2023/08/03 02:32:25;;;;;;;9.57;1.10;;;;;;;;;;4964905;28;20065;-61
2023/08/03 02:34:51;;;;;;;8.43;1.20;;;;;;;;;;4968830;28;20034;-61
2023/08/03 02:37:17;;;;;;;3.90;0.90;;;;;;;;;;4969228;28;20070;-61
2023/08/03 02:39:44;;;;;;;8.75;1.38;;;;;;;;;;4965375;28;20055;-61
2023/08/03 02:42:10;;;;;;;6.45;1.17;;;;;;;;;;4964614;28;20665;-61
2023/08/03 02:44:40;;;;;;;10.25;1.40;;;;;;;;;;4965541;28;20027;-61
2023/08/03 02:47:09;;;;;;;11.00;1.80;;;;;;;;;;4968023;28;20032;-61
2023/08/03 02:49:36;;;;;;;7.63;1.35;;;;;;;;;;4964888;28;20042;-61
2023/08/03 02:52:05;;;;;;;7.30;1.17;;;;;;;;;;4967365;28;20034;-61
2023/08/03 02:54:41;;;;;;;6.88;1.25;;;;;;;;;;4962556;28;20047;-61
2023/08/03 02:57:08;;;;;;;6.18;1.75;;;;;;;;;;4970049;28;20026;-61
2023/08/03 02:59:34;;;;;;;8.73;1.50;;;;;;;;;;4965146;28;20442;-61
2023/08/03 03:02:00;;;;;;;9.00;1.50;;;;;;;;;;4964907;28;21452;-61
2023/08/03 03:04:32;;;;;;;6.97;1.40;;;;;;;;;;4963991;28;20038;-61
2023/08/03 03:06:58;;;;;;;6.65;1.08;;;;;;;;;;4979610;28;20526;-61
2023/08/03 03:09:25;;;;;;;9.70;1.52;;;;;;;;;;4965515;28;20113;-61
2023/08/03 03:11:55;;;;;;;5.35;1.27;;;;;;;;;;4964639;28;20038;-62
2023/08/03 03:14:24;;;;;;;8.45;1.50;;;;;;;;;;4962417;28;20034;-61
2023/08/03 03:16:50;;;;;;;8.35;1.00;;;;;;;;;;4966142;28;20039;-61
2023/08/03 03:19:19;;;;;;;10.00;1.77;;;;;;;;;;4964125;28;20054;-61
2023/08/03 03:21:45;;;;;;;6.22;1.10;;;;;;;;;;4964048;28;20896;-61
2023/08/03 03:24:12;;;;;;;7.53;1.15;;;;;;;;;;4963566;28;20054;-61
2023/08/03 03:26:39;;;;;;;10.55;1.27;;;;;;;;;;4965236;28;20407;-61
2023/08/03 03:29:05;;;;;;;15.32;1.60;;;;;;;;;;4964908;28;20053;-61
2023/08/03 03:31:32;;;;;;;7.93;1.33;;;;;;;;;;4963226;28;20047;-61
2023/08/03 03:34:00;;;;;;;7.57;1.20;;;;;;;;;;4964982;28;20034;-61
2023/08/03 03:36:26;;;;;;;5.90;0.95;;;;;;;;;;4967865;28;20249;-61
2023/08/03 03:38:52;;;;;;;8.63;1.10;;;;;;;;;;4966509;28;20037;-61
2023/08/03 03:41:19;;;;;;;5.88;1.00;;;;;;;;;;4964784;28;20039;-61
2023/08/03 03:43:47;;;;;;;4.88;1.00;;;;;;;;;;4962649;28;20051;-61
2023/08/03 03:46:13;;;;;;;6.05;0.90;;;;;;;;;;4966952;28;20035;-60
2023/08/03 03:48:40;;;;;;;5.57;1.02;;;;;;;;;;4963686;28;20046;-60
2023/08/03 03:51:06;;;;;;;6.15;1.70;;;;;;;;;;4966333;28;20035;-61
2023/08/03 03:53:32;;;;;;;3.55;0.82;;;;;;;;;;4968228;28;20058;-60
2023/08/03 03:56:05;;;;;;;5.22;1.30;;;;;;;;;;4972273;28;20035;-61
2023/08/03 03:58:31;;;;;;;4.13;0.77;;;;;;;;;;4966266;28;20561;-60
2023/08/03 04:00:57;;;;;;;4.25;0.90;;;;;;;;;;4971183;28;20042;-60
2023/08/03 04:03:26;;;;;;;2.40;0.40;;;;;;;;;;4950296;28;20043;-60
2023/08/03 04:05:54;;;;;;;4.93;0.70;;;;;;;;;;4970165;28;20047;-60
2023/08/03 04:08:20;;;;;;;3.83;0.40;;;;;;;;;;4969121;28;20037;-60
2023/08/03 04:10:46;;;;;;;3.47;0.50;;;;;;;;;;4971515;28;20050;-60
2023/08/03 04:13:12;;;;;;;5.05;1.35;;;;;;;;;;4967925;28;20054;-60
2023/08/03 04:15:38;;;;;;;2.92;0.40;;;;;;;;;;4966441;28;20043;-60
2023/08/03 04:18:05;;;;;;;5.38;1.20;;;;;;;;;;4969097;28;20038;-60
2023/08/03 04:20:33;;;;;;;2.97;0.90;;;;;;;;;;4966994;28;20506;-60
2023/08/03 04:23:00;;;;;;;5.55;0.93;;;;;;;;;;4950343;28;20031;-61
2023/08/03 04:25:27;;;;;;;6.22;0.82;;;;;;;;;;4967644;28;20058;-60
2023/08/03 04:27:59;;;;;;;4.63;0.77;;;;;;;;;;4967631;28;20035;-60
2023/08/03 04:30:32;;;;;;;3.85;0.50;;;;;;;;;;4968058;28;20525;-60
2023/08/03 04:32:59;;;;;;;3.53;0.50;;;;;;;;;;4949769;28;20027;-60
2023/08/03 04:35:27;;;;;;;2.03;0.40;;;;;;;;;;4970534;28;20049;-60
2023/08/03 04:38:02;;;;;;;5.60;0.80;;;;;;;;;;4971706;28;20034;-60
2023/08/03 04:40:29;;;;;;;3.47;0.40;;;;;;;;;;4966576;28;20030;-60
2023/08/03 04:42:55;;;;;;;2.05;0.45;;;;;;;;;;4972067;28;20433;-60
2023/08/03 04:45:21;;;;;;;1.75;0.50;;;;;;;;;;4966795;28;20027;-60
2023/08/03 04:47:49;;;;;;;2.50;0.65;;;;;;;;;;4952410;28;20050;-60
2023/08/03 04:50:19;;;;;;;1.33;0.50;;;;;;;;;;4968936;28;20051;-60
2023/08/03 04:52:45;;;;;;;;;;;;;;;;;;4963161;28;20034;-60
2023/08/03 04:55:11;;;;;;;4.63;0.65;;;;;;;;;;4970164;28;20020;-60
2023/08/03 04:57:37;;;;;;;2.33;0.32;;;;;;;;;;4966914;28;20046;-60
2023/08/03 05:00:04;;;;;;;3.38;0.50;;;;;;;;;;4967499;28;20035;-60
2023/08/03 05:02:31;;;;;;;1.95;0.30;;;;;;;;;;4966247;28;20398;-60
2023/08/03 05:04:57;;;;;;;2.80;0.55;;;;;;;;;;4970432;28;20045;-60
2023/08/03 05:07:23;;;;;;;3.50;0.60;;;;;;;;;;4963743;28;20059;-61
2023/08/03 05:09:49;;;;;;;3.63;0.88;;;;;;;;;;4970241;28;20082;-61
2023/08/03 05:12:15;;;;;;;3.17;0.80;;;;;;;;;;4965145;28;20434;-61
2023/08/03 05:14:41;;;;;;;4.25;0.77;;;;;;;;;;4964809;28;20062;-61
2023/08/03 05:17:07;;;;;;;2.13;0.43;;;;;;;;;;4966244;28;20039;-61
2023/08/03 05:19:33;;;;;;;2.67;0.60;;;;;;;;;;4964942;28;20055;-61
2023/08/03 05:21:59;;;;;;;4.75;0.50;;;;;;;;;;4965902;28;20046;-61
2023/08/03 05:24:26;;;;;;;3.75;0.50;;;;;;;;;;4967704;28;20042;-61
2023/08/03 05:26:52;;;;;;;2.90;0.68;;;;;;;;;;4968729;28;20422;-61
2023/08/03 05:29:19;;;;;;;3.85;0.60;;;;;;;;;;4968182;28;20050;-62
2023/08/03 05:31:48;;;;;;;5.47;0.60;;;;;;;;;;4969218;28;20031;-61
2023/08/03 05:34:17;;;;;;;3.67;0.40;;;;;;;;;;4967372;28;20038;-62
2023/08/03 05:36:43;;;;;;;1.95;0.80;;;;;;;;;;4966072;28;20410;-62
2023/08/03 05:39:10;;;;;;;3.30;0.70;;;;;;;;;;4965732;28;20042;-62
2023/08/03 05:41:36;;;;;;;5.82;0.82;;;;;;;;;;4970152;28;20407;-62
2023/08/03 05:44:03;;;;;;;3.92;0.60;;;;;;;;;;4968874;28;20144;-62
2023/08/03 05:46:31;;;;;;;2.97;0.70;;;;;;;;;;4967808;28;20054;-62
2023/08/03 05:48:58;;;;;;;7.95;0.70;;;;;;;;;;4963562;28;20142;-62
2023/08/03 05:51:26;;;;;;;4.85;1.10;;;;;;;;;;4968928;28;20042;-61
2023/08/03 05:53:56;;;;;;;3.83;0.70;;;;;;;;;;4967785;28;20034;-62
2023/08/03 05:56:23;;;;;;;2.35;0.70;;;;;;;;;;4965028;28;20054;-61
2023/08/03 05:58:51;;;;;;;2.65;0.50;;;;;;;;;;4968861;28;20035;-61
2023/08/03 06:01:19;;;;;;;3.08;0.60;;;;;;;;;;4970508;28;20030;-62
2023/08/03 06:03:46;;;;;;;3.53;0.37;;;;;;;;;;4969652;28;20050;-62
2023/08/03 06:06:17;;;;;;;1.65;0.90;;;;;;;;;;4968419;28;20727;-61
2023/08/03 06:08:47;;;;;;;4.80;0.50;;;;;;;;;;4968022;28;20042;-61
2023/08/03 06:11:16;;;;;;;3.22;0.40;;;;;;;;;;4970647;28;20073;-62
2023/08/03 06:13:42;;;;;;;4.00;1.00;;;;;;;;;;4965263;28;20066;-61
2023/08/03 06:16:10;;;;;;;2.20;0.50;;;;;;;;;;4968774;28;20536;-61
2023/08/03 06:18:48;;;;;;;4.50;0.60;;;;;;;;;;4966842;28;20046;-61
2023/08/03 06:21:16;;;;;;;2.80;0.50;;;;;;;;;;4966500;28;20046;-61
2023/08/03 06:23:54;;;;;;;3.17;0.60;;;;;;;;;;4964800;28;20035;-61
2023/08/03 06:26:21;;;;;;;2.45;0.73;;;;;;;;;;4966374;28;20050;-61
2023/08/03 06:28:49;;;;;;;1.88;0.60;;;;;;;;;;4968163;28;20055;-62
2023/08/03 06:31:31;;;;;;;6.05;1.00;;;;;;;;;;4970895;28;20696;-63
2023/08/03 06:33:58;;;;;;;2.55;0.50;;;;;;;;;;4964991;28;20034;-62
2023/08/03 06:36:25;;;;;;;3.03;0.68;;;;;;;;;;4964929;28;20405;-62
2023/08/03 06:38:51;;;;;;;2.20;0.70;;;;;;;;;;4965677;28;20074;-62
2023/08/03 06:41:17;;;;;;;4.22;0.75;;;;;;;;;;4966390;28;20046;-62
2023/08/03 06:43:44;;;;;;;3.70;0.60;;;;;;;;;;4964387;28;20042;-62
2023/08/03 06:46:10;;;;;;;3.85;0.75;;;;;;;;;;4967415;28;20407;-62
2023/08/03 06:48:36;;;;;;;4.70;0.65;;;;;;;;;;4964541;28;20050;-62
2023/08/03 06:51:03;;;;;;;3.88;0.80;;;;;;;;;;4965399;28;20050;-62
2023/08/03 06:53:29;;;;;;;1.90;0.38;;;;;;;;;;4963913;28;20035;-62
2023/08/03 06:55:56;;;;;;;4.10;0.57;;;;;;;;;;4968842;28;20446;-61
2023/08/03 06:58:22;;;;;;;1.23;0.47;;;;;;;;;;4966881;28;20519;-61
2023/08/03 07:00:48;;;;;;;4.53;0.60;;;;;;;;;;4967757;28;20042;-62
2023/08/03 07:03:15;;;;;;;6.18;0.50;;;;;;;;;;4968838;28;20483;-62
2023/08/03 07:05:41;;;;;;;3.78;0.77;;;;;;;;;;4966960;28;20046;-62
2023/08/03 07:08:08;;;;;;;5.00;0.60;;;;;;;;;;4966944;28;20039;-61
2023/08/03 07:10:35;;;;;;;3.13;0.75;;;;;;;;;;4948085;28;20035;-62
2023/08/03 07:13:02;;;;;;;4.25;0.80;;;;;;;;;;4965855;28;20034;-61
2023/08/03 07:15:33;;;;;;;3.65;0.93;;;;;;;;;;4962307;28;20049;-61
2023/08/03 07:18:01;;;;;;;3.03;0.70;;;;;;;;;;4965719;28;20035;-61
2023/08/03 07:20:27;;;;;;;3.53;0.80;;;;;;;;;;4965112;28;20375;-61
2023/08/03 07:22:53;;;;;;;4.78;0.73;;;;;;;;;;4965985;28;20050;-61
2023/08/03 07:25:19;;;;;;;2.05;0.70;;;;;;;;;;4964230;28;20031;-61
2023/08/03 07:27:45;;;;;;;2.22;0.80;;;;;;;;;;4967775;28;20059;-61
2023/08/03 07:30:12;;;;;;;3.25;1.20;;;;;;;;;;4972716;28;20047;-61
2023/08/03 07:32:38;;;;;;;3.92;0.90;;;;;;;;;;4969460;28;20066;-61
2023/08/03 07:35:05;;;;;;;2.30;0.60;;;;;;;;;;4971898;28;20047;-61
2023/08/03 07:37:31;;;;;;;1.63;0.40;;;;;;;;;;4968155;28;20058;-61
2023/08/03 07:39:57;;;;;;;2.83;0.90;;;;;;;;;;4969870;28;20050;-62
2023/08/03 07:42:24;;;;;;;1.40;0.60;;;;;;;;;;4970740;28;20034;-61
2023/08/03 07:44:53;;;;;;;4.53;0.90;;;;;;;;;;4968326;28;20395;-62
2023/08/03 07:47:20;;;;;;;3.33;0.75;;;;;;;;;;4970217;28;20027;-61
2023/08/03 07:49:47;;;;;;;1.95;0.50;;;;;;;;;;4968211;28;20039;-62
2023/08/03 07:52:13;;;;;;;4.63;0.77;;;;;;;;;;4973789;28;20058;-61
2023/08/03 07:54:39;;;;;;;2.55;0.70;;;;;;;;;;4971552;28;24092;-62
2023/08/03 07:57:05;;;;;;;5.85;0.60;;;;;;;;;;4975689;28;20041;-61
2023/08/03 07:59:31;;;;;;;3.55;0.40;;;;;;;;;;4969818;28;20030;-61
2023/08/03 08:01:59;;;;;;;2.30;0.60;;;;;;;;;;4969521;28;20058;-61
2023/08/03 08:04:25;;;;;;;2.17;0.35;;;;;;;;;;4967236;28;20110;-61
2023/08/03 08:06:51;;;;;;;3.90;0.50;;;;;;;;;;4971696;28;20030;-62
2023/08/03 08:09:17;;;;;;;3.58;0.45;;;;;;;;;;4970219;28;20402;-62
2023/08/03 08:11:43;;;;;;;1.88;0.75;;;;;;;;;;4967491;28;20054;-62
2023/08/03 08:14:10;;;;;;;1.88;0.75;;;;;;;;;;4968417;28;20532;-62
2023/08/03 08:16:36;;;;;;;2.53;0.55;;;;;;;;;;4967432;28;20034;-62
2023/08/03 08:19:02;;;;;;;2.40;0.73;;;;;;;;;;4968602;28;20046;-62
2023/08/03 08:21:28;;;;;;;3.90;0.47;;;;;;;;;;4968720;28;20027;-62
2023/08/03 08:23:54;;;;;;;0.80;0.30;;;;;;;;;;4966287;28;20054;-62
2023/08/03 08:26:20;;;;;;;3.55;0.43;;;;;;;;;;4968899;28;20054;-60
2023/08/03 08:28:47;;;;;;;1.92;0.32;;;;;;;;;;4968153;28;20053;-61
2023/08/03 08:31:13;;;;;;;1.83;0.60;;;;;;;;;;4970839;28;20050;-61
2023/08/03 08:33:39;;;;;;;2.97;0.60;;;;;;;;;;4967594;28;20517;-61
2023/08/03 08:36:05;;;;;;;3.80;0.60;;;;;;;;;;4970346;28;20030;-61
2023/08/03 08:38:32;;;;;;;2.92;0.50;;;;;;;;;;4967084;28;20064;-61
2023/08/03 08:41:03;;;;;;;2.63;0.60;;;;;;;;;;4970047;28;20047;-61
2023/08/03 08:43:29;;;;;;;1.75;0.57;;;;;;;;;;4968121;28;20050;-61
2023/08/03 08:45:55;;;;;;;0.93;0.30;;;;;;;;;;4969844;28;20034;-61
2023/08/03 08:48:21;;;;;;;1.70;0.30;;;;;;;;;;4970899;28;20533;-61
2023/08/03 08:50:50;;;;;;;2.53;0.40;;;;;;;;;;4967431;28;20066;-61
2023/08/03 08:53:16;;;;;;;3.10;0.70;;;;;;;;;;4965890;28;20059;-60
2023/08/03 08:55:42;;;;;;;1.85;0.57;;;;;;;;;;4969561;28;20034;-61
2023/08/03 08:58:08;;;;;;;1.48;0.50;;;;;;;;;;4972974;28;20046;-61
2023/08/03 09:00:43;;;;;;;1.02;0.30;;;;;;;;;;4969880;28;20051;-60
2023/08/03 09:03:10;;;;;;;2.28;0.55;;;;;;;;;;4963747;28;20030;-60
2023/08/03 09:05:37;;;;;;;3.55;0.52;;;;;;;;;;4965565;28;20435;-61
2023/08/03 09:08:05;;;;;;;3.70;0.70;;;;;;;;;;4968386;28;20031;-61
2023/08/03 09:10:46;;;;;;;1.85;0.40;;;;;;;;;;4969216;28;20051;-60
2023/08/03 09:13:36;;;;;;;1.02;0.32;;;;;;;;;;4963111;28;20062;-61
2023/08/03 09:16:03;;;;;;;2.65;0.43;;;;;;;;;;4967794;28;20037;-60
2023/08/03 09:18:31;;;;;;;1.05;0.30;;;;;;;;;;4965956;28;20443;-60
2023/08/03 09:21:11;;;;;;;1.45;0.52;;;;;;;;;;4964463;28;20042;-61
2023/08/03 09:23:37;;;;;;;2.30;0.40;;;;;;;;;;4965953;28;20077;-60
2023/08/03 09:26:04;;;;;;;2.20;0.60;;;;;;;;;;4972108;28;20507;-60
2023/08/03 09:28:35;;;;;;;0.90;0.40;;;;;;;;;;4969685;28;20043;-62
2023/08/03 09:31:02;;;;;;;4.43;0.60;;;;;;;;;;4967925;28;20061;-61
2023/08/03 09:33:29;;;;;;;0.98;0.32;;;;;;;;;;4968324;28;20050;-61
2023/08/03 09:36:04;;;;;;;3.63;0.30;;;;;;;;;;4970966;28;20037;-62
2023/08/03 09:38:31;;;;;;;1.48;0.30;;;;;;;;;;4964447;28;20066;-60
2023/08/03 09:40:58;;;;;;;1.40;0.30;;;;;;;;;;4969690;28;20034;-61
2023/08/03 09:43:26;;;;;;;1.67;0.52;;;;;;;;;;4968015;28;20050;-61
2023/08/03 09:45:54;;;;;;;1.83;0.50;;;;;;;;;;4970613;28;20482;-61
2023/08/03 09:48:21;;;;;;;0.85;0.20;;;;;;;;;;4968403;28;20520;-61
2023/08/03 09:50:55;;;;;;;1.52;0.30;;;;;;;;;;4969066;28;20042;-62
2023/08/03 09:53:30;;;;;;;4.40;0.50;;;;;;;;;;4968017;28;20035;-62
2023/08/03 09:56:00;;;;;;;1.73;0.40;;;;;;;;;;4966448;28;20425;-61
2023/08/03 09:58:36;;;;;;;2.08;0.40;;;;;;;;;;4966133;28;20372;-62
2023/08/03 10:01:04;;;;;;;2.78;0.40;;;;;;;;;;4965309;28;20046;-62
2023/08/03 10:03:31;;;;;;;1.63;0.40;;;;;;;;;;4963637;28;20039;-62
2023/08/03 10:06:17;;;;;;;2.17;0.47;;;;;;;;;;4966248;28;20414;-62
2023/08/03 10:08:43;;;;;;;1.50;0.50;;;;;;;;;;4969237;28;20415;-61
2023/08/03 10:11:12;;;;;;;2.00;0.35;;;;;;;;;;4969645;28;20063;-61
2023/08/03 10:13:44;;;;;;;0.73;0.40;;;;;;;;;;4963001;28;20066;-61
2023/08/03 10:16:11;;;;;;;1.75;0.50;;;;;;;;;;4965542;28;20026;-61
2023/08/03 10:18:37;;;;;;;1.75;0.38;;;;;;;;;;4962790;28;20050;-61
2023/08/03 10:21:05;;;;;;;2.65;0.38;;;;;;;;;;4973138;28;20071;-63
2023/08/03 10:23:31;;;;;;;1.13;0.30;;;;;;;;;;4969051;28;20038;-62
2023/08/03 10:25:58;;;;;;;2.88;0.35;;;;;;;;;;4968090;28;20034;-62
2023/08/03 10:28:44;;;;;;;0.35;0.20;;;;;;;;;;4968382;28;20502;-61
2023/08/03 10:31:14;;;;;;;2.22;0.40;;;;;;;;;;4969244;28;20053;-62
2023/08/03 10:33:46;;;;;;;1.50;0.50;;;;;;;;;;4964713;28;20049;-62
2023/08/03 10:36:28;;;;;;;5.15;0.50;;;;;;;;;;4965045;28;20403;-62
2023/08/03 10:39:13;;;;;;;3.50;0.50;;;;;;;;;;4967277;28;20039;-62
2023/08/03 10:41:41;;;;;;;1.17;0.40;;;;;;;;;;4966052;28;20070;-62
2023/08/03 10:44:07;;;;;;;2.45;0.30;;;;;;;;;;4966316;28;20042;-62
2023/08/03 10:46:40;;;;;;;1.10;0.30;;;;;;;;;;4965222;28;20063;-62
2023/08/03 10:49:19;;;;;;;2.92;0.30;;;;;;;;;;4969752;28;20058;-62
2023/08/03 10:52:09;;;;;;;1.25;0.40;;;;;;;;;;4963915;28;20454;-61
2023/08/03 10:54:35;;;;;;;2.13;0.40;;;;;;;;;;4964886;28;20410;-62
2023/08/03 10:57:05;;;;;;;3.35;0.82;;;;;;;;;;4970601;28;20035;-62
2023/08/03 10:59:39;;;;;;;1.63;0.38;;;;;;;;;;4964301;28;20042;-60
2023/08/03 11:02:22;;;;;;;3.75;0.40;;;;;;;;;;4973914;28;20046;-61
2023/08/03 11:04:50;;;;;;;5.43;0.60;;;;;;;;;;4970979;28;20043;-61
2023/08/03 11:07:22;;;;;;;3.53;0.47;;;;;;;;;;4972871;28;20058;-61
2023/08/03 11:09:49;;;;;;;2.00;0.60;;;;;;;;;;4972038;28;20552;-61
2023/08/03 11:12:16;;;;;;;2.40;0.57;;;;;;;;;;4969396;28;20050;-60
2023/08/03 11:14:47;;;;;;;1.77;0.68;;;;;;;;;;4969913;28;20046;-62
2023/08/03 11:17:15;;;;;;;1.63;0.30;;;;;;;;;;4972984;28;20119;-62
2023/08/03 11:19:43;;;;;;;3.50;0.65;;;;;;;;;;4969638;28;20043;-62
2023/08/03 11:22:11;;;;;;;2.03;0.60;;;;;;;;;;4972481;28;20046;-62
2023/08/03 11:24:38;;;;;;;1.25;0.40;;;;;;;;;;4970987;28;20442;-62
2023/08/03 11:27:04;;;;;;;1.70;0.40;;;;;;;;;;4971961;28;20047;-62
2023/08/03 11:29:35;;;;;;;2.20;0.50;;;;;;;;;;4967635;28;20051;-62
2023/08/03 11:32:01;;;;;;;1.58;0.43;;;;;;;;;;4971328;28;20426;-63
2023/08/03 11:34:27;;;;;;;1.38;0.55;;;;;;;;;;4968088;28;20522;-62
2023/08/03 11:36:53;;;;;;;2.13;0.60;;;;;;;;;;4973414;28;20026;-61
2023/08/03 11:39:19;;;;;;;3.47;0.40;;;;;;;;;;4970240;28;20031;-62
2023/08/03 11:41:48;;;;;;;3.60;0.60;;;;;;;;;;4971662;28;20054;-62
2023/08/03 11:44:14;;;;;;;2.03;0.47;;;;;;;;;;4973437;28;20089;-62
2023/08/03 11:46:40;;;;;;;1.23;0.30;;;;;;;;;;4967747;28;20057;-62
2023/08/03 11:49:12;;;;;;;2.90;0.50;;;;;;;;;;4968607;28;20058;-62
2023/08/03 11:51:38;;;;;;;1.77;0.50;;;;;;;;;;4971449;28;20046;-61
2023/08/03 11:54:12;;;;;;;2.20;0.38;;;;;;;;;;4970499;28;20039;-61
2023/08/03 11:56:39;;;;;;;1.70;0.40;;;;;;;;;;4966503;28;20058;-61
2023/08/03 11:59:08;;;;;;;0.82;0.38;;;;;;;;;;4973851;28;20057;-61
2023/08/03 12:01:46;;;;;;;2.42;0.50;;;;;;;;;;4970318;28;20047;-61
2023/08/03 12:04:13;;;;;;;4.20;0.67;;;;;;;;;;4967771;28;20047;-63
2023/08/03 12:06:46;;;;;;;1.45;0.40;;;;;;;;;;4968363;28;20259;-63
2023/08/03 12:09:20;;;;;;;1.75;0.38;;;;;;;;;;4968815;28;20058;-62
2023/08/03 12:11:46;;;;;;;1.55;0.52;;;;;;;;;;4968184;28;20046;-63
2023/08/03 12:14:12;;;;;;;2.10;0.40;;;;;;;;;;4967204;28;20046;-63
2023/08/03 12:16:39;;;;;;;1.30;0.38;;;;;;;;;;4967483;28;20055;-63
2023/08/03 12:19:08;;;;;;;1.13;0.30;;;;;;;;;;4969697;28;20031;-63
2023/08/03 12:21:37;;;;;;;2.45;0.50;;;;;;;;;;4966808;28;20042;-63
2023/08/03 12:24:05;;;;;;;1.02;0.45;;;;;;;;;;4968576;28;20438;-62
2023/08/03 12:26:31;;;;;;;0.57;0.35;;;;;;;;;;4965589;28;20047;-62
2023/08/03 12:28:57;;;;;;;0.75;0.30;;;;;;;;;;4973096;28;20038;-62
2023/08/03 12:31:24;;;;;;;1.92;0.50;;;;;;;;;;4970576;28;20034;-62
2023/08/03 12:33:50;;;;;;;2.20;0.68;;;;;;;;;;4969302;28;20055;-62
2023/08/03 12:36:17;;;;;;;2.90;0.80;;;;;;;;;;4969551;28;20482;-63
2023/08/03 12:38:43;;;;;;;1.55;0.57;;;;;;;;;;4969571;28;20255;-62
2023/08/03 12:41:09;;;;;;;1.55;0.50;;;;;;;;;;4972972;28;20042;-62
2023/08/03 12:43:36;;;;;;;1.17;0.50;;;;;;;;;;4965864;28;20494;-62
2023/08/03 12:46:02;;;;;;;2.38;0.60;;;;;;;;;;4970996;28;20043;-61
2023/08/03 12:48:28;;;;;;;2.03;0.57;;;;;;;;;;4967967;28;20046;-63
2023/08/03 12:50:54;;;;;;;1.50;0.50;;;;;;;;;;4971323;28;20042;-62
2023/08/03 12:53:20;;;;;;;1.42;0.50;;;;;;;;;;4965985;28;20062;-63
2023/08/03 12:55:46;;;;;;;1.95;0.40;;;;;;;;;;4967395;28;20046;-62
2023/08/03 12:58:12;;;;;;;0.80;0.40;;;;;;;;;;4968710;28;20115;-62
2023/08/03 13:00:38;;;;;;;1.20;0.40;;;;;;;;;;4965933;28;22148;-62
2023/08/03 13:03:04;;;;;;;0.68;0.38;;;;;;;;;;4967690;28;20045;-62
2023/08/03 13:05:33;;;;;;;3.70;0.50;;;;;;;;;;4968101;28;20053;-62
2023/08/03 13:07:59;;;;;;;;;;;;;;;;;;4967986;28;20041;-63
2023/08/03 13:10:25;;;;;;;0.80;0.52;;;;;;;;;;4966611;28;19925;-62
2023/08/03 13:12:51;;;;;;;2.08;0.68;;;;;;;;;;4967132;28;20054;-62
2023/08/03 13:15:17;;;;;;;2.05;0.73;;;;;;;;;;4968992;28;20046;-63
2023/08/03 13:17:44;;;;;;;2.88;0.60;;;;;;;;;;4966259;28;20045;-63
2023/08/03 13:20:10;;;;;;;2.40;0.40;;;;;;;;;;4968642;28;20050;-62
2023/08/03 13:22:37;;;;;;;1.67;0.52;;;;;;;;;;4967665;28;20050;-62
2023/08/03 13:25:03;;;;;;;3.22;0.65;;;;;;;;;;4966382;28;20041;-61
2023/08/03 13:27:29;;;;;;;0.90;0.40;;;;;;;;;;4967185;28;20035;-63
2023/08/03 13:29:56;;;;;;;2.88;0.50;;;;;;;;;;4968669;28;20557;-63
2023/08/03 13:32:23;;;;;;;1.60;0.45;;;;;;;;;;4967196;28;20037;-63
2023/08/03 13:34:49;;;;;;;1.00;0.45;;;;;;;;;;4967307;28;20054;-63
2023/08/03 13:37:15;;;;;;;0.82;0.50;;;;;;;;;;4970287;28;20039;-62
2023/08/03 13:39:41;;;;;;;1.23;0.40;;;;;;;;;;4967897;28;20054;-62
2023/08/03 13:42:07;;;;;;;1.20;0.43;;;;;;;;;;4968714;28;20038;-62
2023/08/03 13:44:34;;;;;;;1.75;0.40;;;;;;;;;;4965454;28;20034;-63
2023/08/03 13:47:03;;;;;;;2.22;0.60;;;;;;;;;;4968921;28;20027;-63
2023/08/03 13:49:30;;;;;;;1.35;0.60;;;;;;;;;;4964378;28;20038;-62
2023/08/03 13:51:56;;;;;;;1.00;0.43;;;;;;;;;;4971305;28;20042;-63
2023/08/03 13:54:22;;;;;;;2.20;0.55;;;;;;;;;;4965543;28;20065;-63
2023/08/03 13:56:49;;;;;;;1.45;0.38;;;;;;;;;;4968938;28;20035;-62
2023/08/03 13:59:15;;;;;;;1.27;0.43;;;;;;;;;;4973214;28;20038;-63
2023/08/03 14:01:41;;;;;;;1.25;0.40;;;;;;;;;;4964967;28;20525;-63
2023/08/03 14:04:08;;;;;;;1.02;0.45;;;;;;;;;;4964837;28;20035;-63
2023/08/03 14:06:35;;;;;;;2.05;0.50;;;;;;;;;;4965239;28;20061;-62
2023/08/03 14:09:02;;;;;;;1.83;0.57;;;;;;;;;;4972742;28;20045;-64
2023/08/03 14:11:29;;;;;;;1.42;0.50;;;;;;;;;;4967126;28;20037;-64
2023/08/03 14:14:00;;;;;;;2.08;0.50;;;;;;;;;;4966075;28;20039;-62
2023/08/03 14:16:27;;;;;;;1.77;0.40;;;;;;;;;;4965197;28;20053;-62
2023/08/03 14:18:54;;;;;;;0.82;0.30;;;;;;;;;;4967979;28;20041;-63
2023/08/03 14:21:20;;;;;;;1.98;0.70;;;;;;;;;;4968849;28;20038;-62
2023/08/03 14:23:46;;;;;;;1.60;1.00;;;;;;;;;;4967718;28;20046;-63
2023/08/03 14:26:12;;;;;;;1.38;0.45;;;;;;;;;;4970835;28;20054;-63
2023/08/03 14:28:38;;;;;;;1.52;0.60;;;;;;;;;;4966714;28;22072;-62
2023/08/03 14:31:06;;;;;;;2.78;0.50;;;;;;;;;;4968813;28;20046;-63
2023/08/03 14:33:32;;;;;;;1.97;0.50;;;;;;;;;;4967577;28;20047;-63
2023/08/03 14:35:59;;;;;;;1.05;0.50;;;;;;;;;;4968336;28;20042;-63
2023/08/03 14:38:26;;;;;;;1.08;0.50;;;;;;;;;;4962872;28;20038;-62
2023/08/03 14:40:53;;;;;;;1.48;0.35;;;;;;;;;;4968071;28;20047;-62
2023/08/03 14:43:19;;;;;;;0.40;0.40;;;;;;;;;;4966525;28;20050;-63
2023/08/03 14:45:50;;;;;;;0.90;0.40;;;;;;;;;;4968923;28;20494;-64